ETAD

Spangdahlem Air Base Airport

Trier, Germany
METAR ETAD 191956Z AUTO 00000KT 9999 CLR 18/15 A3025 RMK AO2 SLP227 T01830152 $
Observed Flight Rules
Jun-19 @ 19:56 UTC (14 minutes ago) Visual Flight Rules
Visibility Clouds
10,000+ meters
  • Clear skies
Temperatures Readings
Current 18°C / 64°F
Dewpoint 15°C / 59°F
Humidity 83%
Altimeter 30.25" Hg
Pressure 1022.7 hPa
Elevation 365
METAR ETAD 191956Z AUTO 00000KT 9999 CLR 18/15 A3025 RMK AO2 SLP227 T01830152 $
Observed Flight Rules
Jun-19 @ 19:56 UTC
(14 minutes ago)
VFR
Clouds
  • Clear skies
Temperature Dewpoint
18°C / 64°F 15°C / 59°F
Humidity Altimeter Pressure
83% 30.25" Hg 1022.7 hPa